PWSweather.com
Personal Weather Stations
Station Observations
EA5BZ
Nuevo Altabix, ElcheES

Nuevo AltabixElcheES

Lat: 38.276, Lon: -0.671

Elevation: 0

Station Type: Davis Vantage Pro 2

http://meteoelche.es

Latest ConditionsUpdated 4:55:00 AM GMT+01:01 Wednesday, Aug 21, 2019
Currently Today's Max Today's Min Today's Average
Temperature 72.3°F22.4°C 77.9°F25.5°C 71.7°F22.1°C 74.9°F23.8°C
Dew Point 70.8°F21.6°C 72.1°F22.3°C 69.1°F20.6°C 70.5°F21.4°C
Winds 8.5 mph NE13.7 kmh NE 15.4 mph -24.8 kmh - - 7.4 mph 11.9 kmh
Wind Gusts 14.0 mph22.5 kmh 23.0 mph37.0 kmh - -
Humidity 95% 95% 75% 87%
Pressure 30.07 in1018.3 mb 30.09 in1019.0 mb 30.07 in1018.3 mb -
Precipitation - 0.84 in21.3 mm - -
Hour Temp Dew Point Humidity Winds Wind Gusts Pressure Precip Precip Rate Daily Precip Total
04:55 AM 72.3°F22.4°C 70.8°F21.6°C 95% 8.5 mph NE13.7 kmh NE 14.0 mph22.5 kmh 30.07 in1018.3 mb 0.28 in7.1 mm 0.00 in0.0 mm 0.84 in21.3 mm
04:50 AM 72.3°F22.4°C 70.7°F21.5°C 95% 9.6 mph NE15.4 kmh NE 15.0 mph24.1 kmh 30.08 in1018.6 mb 0.31 in7.9 mm 0.00 in0.0 mm 0.83 in21.1 mm
04:45 AM 72.2°F22.3°C 70.7°F21.5°C 95% 10.1 mph NE16.3 kmh NE 16.0 mph25.7 kmh 30.08 in1018.6 mb 0.31 in7.9 mm 0.24 in6.1 mm 0.80 in20.3 mm
04:40 AM 72.1°F22.3°C 70.4°F21.3°C 95% 11.9 mph NE19.2 kmh NE 20.0 mph32.2 kmh 30.08 in1018.6 mb 0.29 in7.4 mm 0.60 in15.2 mm 0.76 in19.3 mm
04:35 AM 72.0°F22.2°C 70.2°F21.2°C 94% 9.7 mph ENE15.6 kmh ENE 15.0 mph24.1 kmh 30.08 in1018.6 mb 0.24 in6.1 mm 0.48 in12.2 mm 0.69 in17.5 mm
04:30 AM 71.8°F22.1°C 70.0°F21.1°C 94% 7.9 mph ENE12.7 kmh ENE 12.0 mph19.3 kmh 30.09 in1019.0 mb 0.20 in5.1 mm 0.00 in0.0 mm 0.64 in16.3 mm
04:25 AM 71.7°F22.1°C 69.8°F21.0°C 94% 9.8 mph NE15.8 kmh NE 18.0 mph29.0 kmh 30.08 in1018.6 mb 0.21 in5.3 mm 0.00 in0.0 mm 0.61 in15.5 mm
04:20 AM 71.9°F22.2°C 70.0°F21.1°C 94% 12.6 mph NE20.3 kmh NE 19.0 mph30.6 kmh 30.08 in1018.6 mb 0.32 in8.1 mm 0.00 in0.0 mm 0.60 in15.2 mm
04:15 AM 72.0°F22.2°C 70.2°F21.2°C 94% 15.4 mph NE24.8 kmh NE 21.0 mph33.8 kmh 30.08 in1018.6 mb 0.45 in11.4 mm 0.00 in0.0 mm 0.60 in15.2 mm
04:10 AM 72.1°F22.3°C 70.4°F21.3°C 94% 11.0 mph NE17.7 kmh NE 19.0 mph30.6 kmh 30.08 in1018.6 mb 0.50 in12.7 mm 0.00 in0.0 mm 0.60 in15.2 mm
04:05 AM 72.2°F22.3°C 70.5°F21.4°C 94% 10.7 mph NE17.2 kmh NE 16.0 mph25.7 kmh 30.08 in1018.6 mb 0.52 in13.2 mm 0.00 in0.0 mm 0.60 in15.2 mm
04:00 AM 72.2°F22.3°C 70.5°F21.4°C 94% 11.9 mph NE19.2 kmh NE 17.0 mph27.4 kmh 30.08 in1018.6 mb 0.54 in13.7 mm 0.01 in0.3 mm 0.58 in14.7 mm
03:55 AM 72.2°F22.3°C 70.4°F21.3°C 94% 12.8 mph NE20.6 kmh NE 20.0 mph32.2 kmh 30.08 in1018.6 mb 0.53 in13.5 mm 0.36 in9.1 mm 0.56 in14.2 mm
03:50 AM 72.2°F22.3°C 70.4°F21.3°C 94% 11.8 mph NE19.0 kmh NE 23.0 mph37.0 kmh 30.08 in1018.6 mb 0.50 in12.7 mm 0.24 in6.1 mm 0.53 in13.5 mm
03:45 AM 72.3°F22.4°C 70.5°F21.4°C 94% 8.1 mph NE13.0 kmh NE 17.0 mph27.4 kmh 30.08 in1018.6 mb 0.48 in12.2 mm 0.36 in9.1 mm 0.50 in12.7 mm
03:40 AM 72.4°F22.4°C 70.5°F21.4°C 94% 11.3 mph NE18.2 kmh NE 17.0 mph27.4 kmh 30.08 in1018.6 mb 0.45 in11.4 mm 0.00 in0.0 mm 0.46 in11.7 mm
03:35 AM 72.5°F22.5°C 70.7°F21.5°C 94% 6.5 mph NE10.5 kmh NE 14.0 mph22.5 kmh 30.08 in1018.6 mb 0.45 in11.4 mm 0.12 in3.0 mm 0.45 in11.4 mm
03:30 AM 72.6°F22.6°C 70.8°F21.6°C 94% 3.6 mph NE5.8 kmh NE 8.0 mph12.9 kmh 30.08 in1018.6 mb 0.44 in11.2 mm 0.60 in15.2 mm 0.44 in11.2 mm
03:25 AM 72.6°F22.6°C 70.7°F21.5°C 94% 3.1 mph NE5.0 kmh NE 6.0 mph9.7 kmh 30.09 in1019.0 mb 0.39 in9.9 mm 1.32 in33.5 mm 0.39 in9.9 mm
03:20 AM 72.6°F22.6°C 70.6°F21.4°C 93% 5.0 mph E8.0 kmh E 8.0 mph12.9 kmh 30.09 in1019.0 mb 0.28 in7.1 mm 1.56 in39.6 mm 0.28 in7.1 mm
03:15 AM 72.5°F22.5°C 70.4°F21.3°C 93% 4.3 mph NE6.9 kmh NE 9.0 mph14.5 kmh 30.09 in1019.0 mb 0.15 in3.8 mm 0.60 in15.2 mm 0.15 in3.8 mm
03:10 AM 72.6°F22.6°C 70.4°F21.3°C 93% 7.8 mph NE12.6 kmh NE 12.0 mph19.3 kmh 30.09 in1019.0 mb 0.10 in2.5 mm 0.24 in6.1 mm 0.10 in2.5 mm
03:05 AM 72.7°F22.6°C 70.4°F21.3°C 93% 8.0 mph NE12.9 kmh NE 13.0 mph20.9 kmh 30.08 in1018.6 mb 0.08 in2.0 mm 0.36 in9.1 mm 0.08 in2.0 mm
03:00 AM 72.9°F22.7°C 70.5°F21.4°C 92% 10.1 mph NE16.3 kmh NE 15.0 mph24.1 kmh 30.08 in1018.6 mb 0.05 in1.3 mm 0.02 in0.5 mm 0.05 in1.3 mm
02:55 AM 73.3°F22.9°C 70.5°F21.4°C 91% 11.0 mph NE17.7 kmh NE 16.0 mph25.7 kmh 30.08 in1018.6 mb 0.03 in0.8 mm 0.00 in0.0 mm 0.03 in0.8 mm
02:50 AM 73.7°F23.2°C 70.6°F21.4°C 90% 10.9 mph NE17.5 kmh NE 19.0 mph30.6 kmh 30.08 in1018.6 mb 0.03 in0.8 mm 0.12 in3.0 mm 0.03 in0.8 mm
02:45 AM 74.2°F23.4°C 70.9°F21.6°C 89% 12.7 mph NE20.4 kmh NE 20.0 mph32.2 kmh 30.08 in1018.6 mb 0.02 in0.5 mm 0.00 in0.0 mm 0.02 in0.5 mm
02:40 AM 75.0°F23.9°C 71.4°F21.9°C 89% 10.0 mph NE16.1 kmh NE 17.0 mph27.4 kmh 30.08 in1018.6 mb 0.02 in0.5 mm 0.24 in6.1 mm 0.02 in0.5 mm
02:35 AM 75.3°F24.1°C 71.2°F21.8°C 87% 6.7 mph NE10.8 kmh NE 15.0 mph24.1 kmh 30.08 in1018.6 mb 0.00 in0.0 mm 0.00 in0.0 mm 0.00 in0.0 mm
02:30 AM 75.5°F24.2°C 70.7°F21.5°C 85% 8.5 mph E13.7 kmh E 11.0 mph17.7 kmh 30.08 in1018.6 mb 0.00 in0.0 mm 0.00 in0.0 mm 0.00 in0.0 mm
02:25 AM 75.9°F24.4°C 71.2°F21.8°C 85% 8.8 mph E14.2 kmh E 14.0 mph22.5 kmh 30.08 in1018.6 mb 0.00 in0.0 mm 0.00 in0.0 mm 0.00 in0.0 mm
02:20 AM 76.2°F24.6°C 71.7°F22.1°C 86% 6.0 mph ENE9.7 kmh ENE 12.0 mph19.3 kmh 30.08 in1018.6 mb 0.00 in0.0 mm 0.00 in0.0 mm 0.00 in0.0 mm
02:15 AM 76.4°F24.7°C 71.9°F22.2°C 86% 5.7 mph ENE9.2 kmh ENE 10.0 mph16.1 kmh 30.08 in1018.6 mb 0.00 in0.0 mm 0.00 in0.0 mm 0.00 in0.0 mm
02:10 AM 76.4°F24.7°C 72.0°F22.2°C 86% 7.1 mph NE11.4 kmh NE 12.0 mph19.3 kmh 30.08 in1018.6 mb 0.00 in0.0 mm 0.00 in0.0 mm 0.00 in0.0 mm
02:05 AM 76.6°F24.8°C 72.1°F22.3°C 86% 8.3 mph ENE13.4 kmh ENE 14.0 mph22.5 kmh 30.08 in1018.6 mb 0.00 in0.0 mm 0.00 in0.0 mm 0.00 in0.0 mm
02:00 AM 76.8°F24.9°C 72.1°F22.3°C 86% 9.3 mph ENE15.0 kmh ENE 16.0 mph25.7 kmh 30.08 in1018.6 mb 0.00 in0.0 mm 0.00 in0.0 mm 0.00 in0.0 mm
01:55 AM 76.8°F24.9°C 71.9°F22.2°C 85% 9.2 mph ENE14.8 kmh ENE 14.0 mph22.5 kmh 30.08 in1018.6 mb 0.00 in0.0 mm 0.00 in0.0 mm 0.00 in0.0 mm
01:50 AM 76.7°F24.8°C 71.3°F21.8°C 84% 9.6 mph E15.4 kmh E 14.0 mph22.5 kmh 30.08 in1018.6 mb 0.00 in0.0 mm 0.00 in0.0 mm 0.00 in0.0 mm
01:45 AM 76.2°F24.6°C 71.3°F21.8°C 85% 10.3 mph E16.6 kmh E 14.0 mph22.5 kmh 30.08 in1018.6 mb 0.00 in0.0 mm 0.00 in0.0 mm 0.00 in0.0 mm
01:40 AM 75.5°F24.2°C 71.6°F22.0°C 88% 8.4 mph ENE13.5 kmh ENE 18.0 mph29.0 kmh 30.08 in1018.6 mb 0.00 in0.0 mm 0.00 in0.0 mm 0.00 in0.0 mm
01:35 AM 75.4°F24.1°C 71.7°F22.1°C 88% 3.9 mph NE6.3 kmh NE 6.0 mph9.7 kmh 30.08 in1018.6 mb 0.00 in0.0 mm 0.00 in0.0 mm 0.00 in0.0 mm
01:30 AM 75.6°F24.2°C 71.6°F22.0°C 87% 4.7 mph ENE7.6 kmh ENE 7.0 mph11.3 kmh 30.08 in1018.6 mb 0.00 in0.0 mm 0.00 in0.0 mm 0.00 in0.0 mm
01:25 AM 75.9°F24.4°C 71.5°F21.9°C 86% 4.3 mph NE6.9 kmh NE 9.0 mph14.5 kmh 30.08 in1018.6 mb 0.00 in0.0 mm 0.00 in0.0 mm 0.00 in0.0 mm
01:20 AM 76.5°F24.7°C 71.6°F22.0°C 85% 5.5 mph NNE8.9 kmh NNE 12.0 mph19.3 kmh 30.08 in1018.6 mb 0.00 in0.0 mm 0.00 in0.0 mm 0.00 in0.0 mm
01:15 AM 77.2°F25.1°C 71.5°F21.9°C 83% 8.4 mph NE13.5 kmh NE 15.0 mph24.1 kmh 30.08 in1018.6 mb 0.00 in0.0 mm 0.00 in0.0 mm 0.00 in0.0 mm
01:10 AM 77.6°F25.3°C 70.6°F21.4°C 79% 5.0 mph NE8.0 kmh NE 12.0 mph19.3 kmh 30.08 in1018.6 mb 0.00 in0.0 mm 0.00 in0.0 mm 0.00 in0.0 mm
01:05 AM 77.8°F25.4°C 70.1°F21.2°C 77% 6.4 mph NNE10.3 kmh NNE 11.0 mph17.7 kmh 30.08 in1018.6 mb 0.00 in0.0 mm 0.00 in0.0 mm 0.00 in0.0 mm
01:00 AM 77.8°F25.4°C 69.9°F21.1°C 77% 6.6 mph NE10.6 kmh NE 14.0 mph22.5 kmh 30.08 in1018.6 mb 0.00 in0.0 mm 0.00 in0.0 mm 0.00 in0.0 mm
12:55 AM 77.8°F25.4°C 69.6°F20.9°C 76% 7.4 mph NE11.9 kmh NE 14.0 mph22.5 kmh 30.08 in1018.6 mb 0.00 in0.0 mm 0.00 in0.0 mm 0.00 in0.0 mm
12:50 AM 77.7°F25.4°C 69.1°F20.6°C 75% 2.7 mph NE4.3 kmh NE 7.0 mph11.3 kmh 30.08 in1018.6 mb 0.00 in0.0 mm 0.00 in0.0 mm 0.00 in0.0 mm
12:45 AM 77.7°F25.4°C 69.1°F20.6°C 75% 2.7 mph N4.3 kmh N 9.0 mph14.5 kmh 30.08 in1018.6 mb 0.00 in0.0 mm 0.00 in0.0 mm 0.00 in0.0 mm
12:40 AM 77.7°F25.4°C 69.1°F20.6°C 75% 3.8 mph N6.1 kmh N 7.0 mph11.3 kmh 30.08 in1018.6 mb 0.00 in0.0 mm 0.00 in0.0 mm 0.00 in0.0 mm
12:35 AM 77.8°F25.4°C 69.1°F20.6°C 75% 3.3 mph N5.3 kmh N 5.0 mph8.0 kmh 30.09 in1019.0 mb 0.00 in0.0 mm 0.00 in0.0 mm 0.00 in0.0 mm
12:30 AM 77.9°F25.5°C 69.1°F20.6°C 75% 3.9 mph N6.3 kmh N 7.0 mph11.3 kmh 30.09 in1019.0 mb 0.00 in0.0 mm 0.00 in0.0 mm 0.00 in0.0 mm
12:25 AM 77.9°F25.5°C 69.1°F20.6°C 75% 2.9 mph N4.7 kmh N 5.0 mph8.0 kmh 30.09 in1019.0 mb 0.00 in0.0 mm 0.00 in0.0 mm 0.00 in0.0 mm
12:20 AM 77.9°F25.5°C 69.2°F20.7°C 75% 1.2 mph ENE1.9 kmh ENE 3.0 mph4.8 kmh 30.09 in1019.0 mb 0.00 in0.0 mm 0.00 in0.0 mm 0.00 in0.0 mm
12:15 AM 77.9°F25.5°C 69.2°F20.7°C 75% 1.4 mph ENE2.3 kmh ENE 2.0 mph3.2 kmh 30.09 in1019.0 mb 0.00 in0.0 mm 0.00 in0.0 mm 0.00 in0.0 mm
12:10 AM 77.9°F25.5°C 69.1°F20.6°C 75% 1.6 mph NE2.6 kmh NE 4.0 mph6.4 kmh 30.08 in1018.6 mb 0.00 in0.0 mm 0.00 in0.0 mm 0.00 in0.0 mm
12:05 AM 77.9°F25.5°C 69.1°F20.6°C 75% 2.4 mph N3.9 kmh N 4.0 mph6.4 kmh 30.08 in1018.6 mb 0.00 in0.0 mm 0.00 in0.0 mm 0.00 in0.0 mm
12:00 AM 77.8°F25.4°C 69.1°F20.6°C 75% 1.9 mph NNE3.1 kmh NNE 5.0 mph8.0 kmh 30.08 in1018.6 mb 0.00 in0.0 mm 0.00 in0.0 mm 0.00 in0.0 mm